createdAt,value
2022-11-24T00:00:12.638Z,98.16
2022-11-24T00:02:42.414Z,98.18
2022-11-24T00:05:10.839Z,98.14
2022-11-24T00:07:39.994Z,98.17
2022-11-24T00:10:08.698Z,98.23
2022-11-24T00:12:37.512Z,98.23
2022-11-24T00:15:06.571Z,98.28
2022-11-24T00:17:34.909Z,98.25
2022-11-24T00:20:05.681Z,98.23
2022-11-24T00:22:35.396Z,98.25
2022-11-24T00:25:03.665Z,98.30
2022-11-24T00:27:33.498Z,98.30
2022-11-24T00:30:01.883Z,98.32
2022-11-24T00:32:31.219Z,98.32
2022-11-24T00:35:00.309Z,98.30
2022-11-24T00:37:37.420Z,98.34
2022-11-24T00:40:06.695Z,98.32
2022-11-24T00:42:38.266Z,98.35
2022-11-24T00:45:13.925Z,98.35
2022-11-24T00:47:42.458Z,98.38
2022-11-24T00:50:11.242Z,98.34
2022-11-24T00:52:40.833Z,98.35
2022-11-24T00:55:09.242Z,98.34
2022-11-24T00:57:37.277Z,98.40
2022-11-24T01:00:07.135Z,98.39
2022-11-24T01:02:35.484Z,98.44
2022-11-24T01:05:03.948Z,98.36
2022-11-24T01:07:33.876Z,98.39
2022-11-24T01:10:04.009Z,98.43
2022-11-24T01:12:34.012Z,98.38
2022-11-24T01:15:02.190Z,98.41
2022-11-24T01:17:34.296Z,98.42
2022-11-24T01:20:02.990Z,98.46
2022-11-24T01:22:31.607Z,98.46
2022-11-24T01:24:59.597Z,98.46
2022-11-24T01:27:32.807Z,98.46
2022-11-24T01:30:01.927Z,98.47
2022-11-24T01:32:33.110Z,98.51
2022-11-24T01:35:02.694Z,98.50
2022-11-24T01:37:32.946Z,98.51
2022-11-24T01:40:01.062Z,98.52
2022-11-24T01:42:41.672Z,98.52
2022-11-24T01:45:33.576Z,98.53
2022-11-24T01:48:29.075Z,98.52
2022-11-24T01:51:07.526Z,98.51
2022-11-24T01:53:37.712Z,98.55
2022-11-24T01:56:08.796Z,98.49
2022-11-24T01:58:39.928Z,98.52
2022-11-24T02:01:08.818Z,98.51
2022-11-24T02:03:41.659Z,98.52
2022-11-24T02:06:12.984Z,98.48
2022-11-24T02:08:48.001Z,98.51
2022-11-24T02:11:18.931Z,98.52
2022-11-24T02:13:49.511Z,98.55
2022-11-24T02:16:19.588Z,98.51
2022-11-24T02:18:47.758Z,98.49
2022-11-24T02:21:17.084Z,98.50
2022-11-24T02:23:52.214Z,98.55
2022-11-24T02:26:30.341Z,98.58
2022-11-24T02:28:59.307Z,98.57
2022-11-24T02:31:27.451Z,98.53
2022-11-24T02:33:57.766Z,98.57
2022-11-24T02:36:28.272Z,98.63
2022-11-24T02:38:56.495Z,98.63
2022-11-24T02:41:27.262Z,98.59
2022-11-24T02:43:56.757Z,98.62
2022-11-24T02:46:25.129Z,98.64
2022-11-24T02:48:53.331Z,98.58
2022-11-24T02:51:21.309Z,98.63
2022-11-24T02:53:49.711Z,98.62
2022-11-24T02:56:17.959Z,98.67
2022-11-24T02:58:47.536Z,98.66
2022-11-24T03:01:17.260Z,98.65
2022-11-24T03:03:45.406Z,98.66
2022-11-24T03:06:15.203Z,98.68
2022-11-24T03:08:44.916Z,98.64
2022-11-24T03:11:13.949Z,98.64
2022-11-24T03:13:41.852Z,98.64
2022-11-24T03:16:11.923Z,98.62
2022-11-24T03:18:40.623Z,98.59
2022-11-24T03:21:12.304Z,98.66
2022-11-24T03:23:41.255Z,98.69
2022-11-24T03:26:10.687Z,98.70
2022-11-24T03:28:39.073Z,98.73
2022-11-24T03:31:07.756Z,98.71
2022-11-24T03:33:37.569Z,98.70
2022-11-24T03:36:07.222Z,98.72
2022-11-24T03:38:35.596Z,98.70
2022-11-24T03:41:03.624Z,98.69
2022-11-24T03:43:32.341Z,98.71
2022-11-24T03:46:00.817Z,98.72
2022-11-24T03:48:29.259Z,98.69
2022-11-24T03:51:00.714Z,98.73
2022-11-24T03:53:31.448Z,98.70
2022-11-24T03:55:59.611Z,98.69
2022-11-24T03:58:31.529Z,98.71
2022-11-24T04:00:59.775Z,98.72
2022-11-24T04:03:27.841Z,98.70
2022-11-24T04:05:57.420Z,98.74
2022-11-24T04:08:26.963Z,98.77
2022-11-24T04:10:55.978Z,98.74
2022-11-24T04:13:25.395Z,98.80
2022-11-24T04:15:57.966Z,98.79
2022-11-24T04:18:26.194Z,98.84
2022-11-24T04:20:54.393Z,98.79
2022-11-24T04:23:22.631Z,98.81
2022-11-24T04:25:55.432Z,98.84
2022-11-24T04:28:23.488Z,98.83
2022-11-24T04:30:53.883Z,98.84
2022-11-24T04:33:22.063Z,98.84
2022-11-24T04:35:52.129Z,98.81
2022-11-24T04:39:24.377Z,98.81
2022-11-24T04:41:10.706Z,98.84
2022-11-24T04:43:40.905Z,98.84
2022-11-24T04:46:10.507Z,98.82
2022-11-24T04:48:42.937Z,98.81
2022-11-24T04:51:12.039Z,98.80
2022-11-24T04:53:40.465Z,98.82
2022-11-24T04:56:11.104Z,98.81
2022-11-24T04:58:39.582Z,98.82
2022-11-24T05:01:09.750Z,98.82
2022-11-24T05:03:38.282Z,98.85
2022-11-24T05:06:08.873Z,98.84
2022-11-24T05:08:37.147Z,98.83
2022-11-24T05:11:07.743Z,98.84
2022-11-24T05:13:37.427Z,98.84
2022-11-24T05:16:06.411Z,98.78
2022-11-24T05:18:34.559Z,98.87
2022-11-24T05:21:03.408Z,98.88
2022-11-24T05:23:31.708Z,98.85
2022-11-24T05:26:00.978Z,98.84
2022-11-24T05:28:33.380Z,98.84
2022-11-24T05:31:03.848Z,98.81
2022-11-24T05:33:34.261Z,98.85
2022-11-24T05:36:03.301Z,98.84
2022-11-24T05:38:32.175Z,98.81
2022-11-24T05:41:07.071Z,98.84
2022-11-24T05:43:35.221Z,98.87
2022-11-24T05:46:05.002Z,98.89
2022-11-24T05:48:33.021Z,98.88
2022-11-24T05:51:03.182Z,98.91
2022-11-24T05:53:34.620Z,98.90
2022-11-24T05:56:03.852Z,98.91
2022-11-24T05:58:33.744Z,99.03
2022-11-24T06:01:02.261Z,99.20
2022-11-24T06:03:32.174Z,99.24
2022-11-24T06:06:00.636Z,99.11
2022-11-24T06:08:31.250Z,99.07
2022-11-24T06:11:17.150Z,99.06
2022-11-24T06:13:46.368Z,99.01
2022-11-24T06:16:15.235Z,99.02
2022-11-24T06:18:46.067Z,99.01
2022-11-24T06:21:14.587Z,98.97
2022-11-24T06:23:42.621Z,98.94
2022-11-24T06:26:11.305Z,98.87
2022-11-24T06:28:39.385Z,98.92
2022-11-24T06:31:07.962Z,98.87
2022-11-24T06:33:38.191Z,98.89
2022-11-24T06:36:10.984Z,98.90
2022-11-24T06:38:39.053Z,98.98
2022-11-24T06:41:09.070Z,98.98
2022-11-24T06:43:37.450Z,98.98
2022-11-24T06:46:08.261Z,99.01
2022-11-24T06:48:36.698Z,99.01
2022-11-24T06:51:08.602Z,99.07
2022-11-24T06:53:39.562Z,99.02
2022-11-24T06:56:15.781Z,99.06
2022-11-24T06:58:46.633Z,99.05
2022-11-24T07:01:16.046Z,99.06
2022-11-24T07:03:45.418Z,99.04
2022-11-24T07:06:15.305Z,99.07
2022-11-24T07:08:44.644Z,99.01
2022-11-24T07:11:15.640Z,99.06
2022-11-24T07:13:45.332Z,99.08
2022-11-24T07:16:15.269Z,99.09
2022-11-24T07:18:43.756Z,99.12
2022-11-24T07:21:21.840Z,99.11
2022-11-24T07:23:52.227Z,99.09
2022-11-24T07:26:21.048Z,99.09
2022-11-24T07:28:49.717Z,99.09
2022-11-24T07:31:20.233Z,99.09
2022-11-24T07:33:49.501Z,99.15
2022-11-24T07:36:19.465Z,99.15
2022-11-24T07:38:48.111Z,99.12
2022-11-24T07:41:17.957Z,99.13
2022-11-24T07:43:46.061Z,99.13
2022-11-24T07:46:18.291Z,99.14
2022-11-24T07:48:47.099Z,99.10
2022-11-24T07:51:16.157Z,99.13
2022-11-24T07:53:46.827Z,99.11
2022-11-24T07:56:15.074Z,99.12
2022-11-24T07:58:48.325Z,99.19
2022-11-24T08:01:20.961Z,99.19
2022-11-24T08:03:50.341Z,99.19
2022-11-24T08:06:31.811Z,99.17
2022-11-24T08:09:11.358Z,99.20
2022-11-24T08:11:39.493Z,99.23
2022-11-24T08:14:10.177Z,99.20
2022-11-24T08:16:39.100Z,99.21
2022-11-24T08:19:09.444Z,99.21
2022-11-24T08:21:38.506Z,99.23
2022-11-24T08:24:10.036Z,99.24
2022-11-24T08:26:40.635Z,99.24
2022-11-24T08:29:09.417Z,99.22
2022-11-24T08:31:40.907Z,99.21
2022-11-24T08:34:10.335Z,99.18
2022-11-24T08:36:38.307Z,99.20
2022-11-24T08:39:08.053Z,99.21
2022-11-24T08:41:36.066Z,99.20
2022-11-24T08:44:04.674Z,99.23
2022-11-24T08:46:32.698Z,99.27
2022-11-24T08:49:01.023Z,99.28
2022-11-24T08:51:29.723Z,99.30
2022-11-24T08:53:59.081Z,99.33
2022-11-24T08:56:30.591Z,99.31
2022-11-24T08:58:59.407Z,99.32
2022-11-24T09:01:28.236Z,99.35
2022-11-24T09:03:58.440Z,99.40
2022-11-24T09:06:30.889Z,99.35
2022-11-24T09:08:59.377Z,99.30
2022-11-24T09:11:30.750Z,99.27
2022-11-24T09:13:59.074Z,99.23
2022-11-24T09:16:29.897Z,99.16
2022-11-24T09:19:01.258Z,99.17
2022-11-24T09:21:34.573Z,99.18
2022-11-24T09:24:04.032Z,99.19
2022-11-24T09:26:36.039Z,99.18
2022-11-24T09:29:08.163Z,99.20
2022-11-24T09:31:39.217Z,99.20
2022-11-24T09:34:11.156Z,99.17
2022-11-24T09:36:39.185Z,99.12
2022-11-24T09:39:07.671Z,99.12
2022-11-24T09:41:41.372Z,99.18
2022-11-24T09:44:17.910Z,99.18
2022-11-24T09:46:53.049Z,99.20
2022-11-24T09:49:27.558Z,99.23
2022-11-24T09:51:57.754Z,99.19
2022-11-24T09:54:29.332Z,99.17
2022-11-24T09:57:02.910Z,99.12
2022-11-24T09:59:31.391Z,99.12
2022-11-24T10:02:01.271Z,99.14
2022-11-24T10:04:41.416Z,98.97
2022-11-24T10:07:16.256Z,99.00
2022-11-24T10:09:55.869Z,99.09
2022-11-24T10:12:37.939Z,99.02
2022-11-24T10:15:25.703Z,98.94
2022-11-24T10:18:17.757Z,99.02
2022-11-24T10:20:59.003Z,99.08
2022-11-24T10:23:40.885Z,98.97
2022-11-24T10:26:10.291Z,98.84
2022-11-24T10:28:43.498Z,98.73
2022-11-24T10:31:23.001Z,98.59
2022-11-24T10:33:51.461Z,98.45
2022-11-24T10:36:23.318Z,98.36
2022-11-24T10:38:59.110Z,98.42
2022-11-24T10:41:39.371Z,98.43
2022-11-24T10:44:17.152Z,98.55
2022-11-24T10:46:45.758Z,98.58
2022-11-24T10:49:19.836Z,98.48
2022-11-24T10:51:54.522Z,98.49
2022-11-24T10:54:24.683Z,98.47
2022-11-24T10:56:54.498Z,98.20
2022-11-24T10:59:40.591Z,98.13
2022-11-24T11:02:34.123Z,98.15
2022-11-24T11:05:32.049Z,97.90
2022-11-24T11:08:17.947Z,97.53
2022-11-24T11:10:47.348Z,97.49
2022-11-24T11:13:28.506Z,97.20
2022-11-24T11:16:00.942Z,96.92
2022-11-24T11:18:33.539Z,96.83
2022-11-24T11:21:02.971Z,96.63
2022-11-24T11:23:34.734Z,96.78
2022-11-24T11:26:18.398Z,96.68
2022-11-24T11:31:15.377Z,96.60
2022-11-24T11:34:49.325Z,96.46
2022-11-24T11:37:18.799Z,96.48
2022-11-24T11:39:51.560Z,96.50
2022-11-24T11:42:53.587Z,96.38
2022-11-24T11:45:13.283Z,96.46
2022-11-24T11:47:45.378Z,96.40
2022-11-24T11:50:18.040Z,96.32
2022-11-24T11:53:06.881Z,96.21
2022-11-24T11:55:48.185Z,96.20
2022-11-24T11:58:55.614Z,96.15
2022-11-24T12:01:40.294Z,96.04
2022-11-24T12:04:37.353Z,96.03
2022-11-24T12:07:20.994Z,95.86
2022-11-24T12:09:57.345Z,95.72
2022-11-24T12:12:46.313Z,95.59
2022-11-24T12:15:22.573Z,95.49
2022-11-24T12:17:59.930Z,95.47
2022-11-24T12:20:41.412Z,95.46
2022-11-24T12:23:18.854Z,95.27
2022-11-24T12:25:49.373Z,95.11
2022-11-24T12:28:29.568Z,95.26
2022-11-24T12:31:07.014Z,95.26
2022-11-24T12:34:15.204Z,95.19
2022-11-24T12:36:57.676Z,95.07
2022-11-24T12:39:26.710Z,94.99
2022-11-24T12:42:06.422Z,94.88
2022-11-24T12:44:52.515Z,94.75
2022-11-24T12:47:24.695Z,94.58
2022-11-24T12:50:02.731Z,94.31
2022-11-24T12:52:34.681Z,94.12
2022-11-24T12:55:03.375Z,94.19
2022-11-24T12:57:35.338Z,94.20
2022-11-24T13:00:07.196Z,94.23
2022-11-24T13:02:44.474Z,94.30
2022-11-24T13:05:21.401Z,94.30
2022-11-24T13:07:57.566Z,94.31
2022-11-24T13:13:27.326Z,94.26
2022-11-24T13:19:09.654Z,94.19
2022-11-24T13:22:06.057Z,94.01
2022-11-24T13:24:36.963Z,93.85
2022-11-24T13:27:28.447Z,93.64
2022-11-24T13:29:56.962Z,93.49
2022-11-24T13:33:04.805Z,93.26
2022-11-24T13:35:33.033Z,93.15
2022-11-24T13:38:05.529Z,93.16
2022-11-24T13:41:13.468Z,93.09
2022-11-24T13:44:23.291Z,93.02
2022-11-24T13:47:04.757Z,92.95
2022-11-24T13:49:39.110Z,92.92
2022-11-24T13:52:39.659Z,92.78
2022-11-24T13:55:22.420Z,92.83
2022-11-24T13:57:54.521Z,92.85
2022-11-24T14:00:25.338Z,92.92
2022-11-24T14:02:55.253Z,92.97
2022-11-24T14:05:26.457Z,93.00
2022-11-24T14:07:55.515Z,93.03
2022-11-24T14:10:30.438Z,93.11
2022-11-24T14:13:32.400Z,93.15
2022-11-24T14:16:02.552Z,93.14
2022-11-24T14:18:31.808Z,93.19
2022-11-24T14:21:02.575Z,93.26
2022-11-24T14:23:32.398Z,93.27
2022-11-24T14:26:00.677Z,93.28
2022-11-24T14:28:30.770Z,93.26
2022-11-24T14:31:09.619Z,93.35
2022-11-24T14:33:37.800Z,93.37
2022-11-24T14:36:06.807Z,93.41
2022-11-24T14:38:36.390Z,93.46
2022-11-24T14:41:20.711Z,93.50
2022-11-24T14:43:50.425Z,93.53
2022-11-24T14:46:20.118Z,93.60
2022-11-24T14:48:50.571Z,93.66
2022-11-24T14:51:23.223Z,93.67
2022-11-24T14:53:58.982Z,93.71
2022-11-24T14:56:29.452Z,93.78
2022-11-24T14:59:00.006Z,93.84
2022-11-24T15:01:33.955Z,93.90
2022-11-24T15:04:46.699Z,93.99
2022-11-24T15:07:15.455Z,94.07
2022-11-24T15:09:53.111Z,94.08
2022-11-24T15:12:29.233Z,94.16
2022-11-24T15:15:01.687Z,94.16
2022-11-24T15:17:31.400Z,94.24
2022-11-24T15:20:02.426Z,94.37
2022-11-24T15:22:39.352Z,94.40
2022-11-24T15:25:27.931Z,94.45
2022-11-24T15:27:56.057Z,94.48
2022-11-24T15:30:26.489Z,94.55
2022-11-24T15:32:56.109Z,94.56
2022-11-24T15:35:26.024Z,94.56
2022-11-24T15:37:54.308Z,94.60
2022-11-24T15:40:22.930Z,94.61
2022-11-24T15:42:52.792Z,94.62
2022-11-24T15:45:23.100Z,94.64
2022-11-24T15:47:54.624Z,94.69
2022-11-24T15:50:24.798Z,94.74
2022-11-24T15:52:54.227Z,94.78
2022-11-24T15:55:23.035Z,94.78
2022-11-24T15:57:51.496Z,94.88
2022-11-24T16:00:21.708Z,94.94
2022-11-24T16:02:50.318Z,94.93
2022-11-24T16:05:21.122Z,94.96
2022-11-24T16:07:52.593Z,95.01
2022-11-24T16:10:25.781Z,95.04
2022-11-24T16:12:53.788Z,95.03
2022-11-24T16:15:23.107Z,94.99
2022-11-24T16:17:51.605Z,95.04
2022-11-24T16:20:21.623Z,95.08
2022-11-24T16:22:49.960Z,95.20
2022-11-24T16:25:18.664Z,95.28
2022-11-24T16:27:46.760Z,95.30
2022-11-24T16:30:16.353Z,95.36
2022-11-24T16:32:44.960Z,95.41
2022-11-24T16:35:13.977Z,95.47
2022-11-24T16:37:43.516Z,95.53
2022-11-24T16:40:12.736Z,95.53
2022-11-24T16:42:41.207Z,95.56
2022-11-24T16:45:12.246Z,95.52
2022-11-24T16:47:41.737Z,95.54
2022-11-24T16:50:13.532Z,95.61
2022-11-24T16:52:43.997Z,95.56
2022-11-24T16:55:14.176Z,95.55
2022-11-24T16:57:43.776Z,95.61
2022-11-24T17:00:13.064Z,95.61
2022-11-24T17:02:41.343Z,95.62
2022-11-24T17:05:10.051Z,95.65
2022-11-24T17:07:38.258Z,95.64
2022-11-24T17:10:09.693Z,95.63
2022-11-24T17:12:39.087Z,95.65
2022-11-24T17:15:31.722Z,95.67
2022-11-24T17:18:23.030Z,95.66
2022-11-24T17:20:45.515Z,95.70
2022-11-24T17:23:13.745Z,95.71
2022-11-24T17:25:43.457Z,95.71
2022-11-24T17:28:11.662Z,95.73
2022-11-24T17:30:41.065Z,95.78
2022-11-24T17:33:09.203Z,95.80
2022-11-24T17:35:39.150Z,95.85
2022-11-24T17:38:08.736Z,95.86
2022-11-24T17:40:37.177Z,95.89
2022-11-24T17:43:07.387Z,95.89
2022-11-24T17:45:37.597Z,95.93
2022-11-24T17:48:06.018Z,95.95
2022-11-24T17:50:34.024Z,95.96
2022-11-24T17:53:02.020Z,95.99
2022-11-24T17:55:30.057Z,96.05
2022-11-24T17:57:57.956Z,96.12
2022-11-24T18:00:28.054Z,96.19
2022-11-24T18:02:58.822Z,96.25
2022-11-24T18:05:29.320Z,96.32
2022-11-24T18:07:58.577Z,96.33
2022-11-24T18:10:30.133Z,96.35
2022-11-24T18:12:58.647Z,96.37
2022-11-24T18:15:28.546Z,96.46
2022-11-24T18:17:57.562Z,96.46
2022-11-24T18:20:29.345Z,96.44
2022-11-24T18:23:05.619Z,96.39
2022-11-24T18:25:37.302Z,96.35
2022-11-24T18:28:05.770Z,96.33
2022-11-24T18:30:35.453Z,96.27
2022-11-24T18:33:04.665Z,96.14
2022-11-24T18:35:32.971Z,96.08
2022-11-24T18:38:01.765Z,96.08
2022-11-24T18:40:30.278Z,96.06
2022-11-24T18:42:59.275Z,96.00
2022-11-24T18:45:27.931Z,96.14
2022-11-24T18:47:57.640Z,96.22
2022-11-24T18:50:25.841Z,96.22
2022-11-24T18:52:54.772Z,96.30
2022-11-24T18:55:24.239Z,96.35
2022-11-24T18:57:52.586Z,96.35
2022-11-24T19:00:22.080Z,96.52
2022-11-24T19:02:51.637Z,96.51
2022-11-24T19:05:22.836Z,96.58
2022-11-24T19:07:50.977Z,96.58
2022-11-24T19:10:19.285Z,96.63
2022-11-24T19:12:48.464Z,96.72
2022-11-24T19:15:17.045Z,96.81
2022-11-24T19:17:47.506Z,96.75
2022-11-24T19:20:15.933Z,96.65
2022-11-24T19:22:45.431Z,96.73
2022-11-24T19:25:13.583Z,96.74
2022-11-24T19:27:42.117Z,96.82
2022-11-24T19:30:10.843Z,96.82
2022-11-24T19:32:38.959Z,96.87
2022-11-24T19:35:12.007Z,96.88
2022-11-24T19:37:40.645Z,96.96
2022-11-24T19:40:15.835Z,96.97
2022-11-24T19:42:44.295Z,97.05
2022-11-24T19:45:13.754Z,97.07
2022-11-24T19:47:41.769Z,97.00
2022-11-24T19:50:11.088Z,96.96
2022-11-24T19:52:42.519Z,96.93
2022-11-24T19:55:19.564Z,96.97
2022-11-24T19:57:50.613Z,97.03
2022-11-24T20:00:19.051Z,97.12
2022-11-24T20:02:50.144Z,97.15
2022-11-24T20:05:18.206Z,97.18
2022-11-24T20:07:46.313Z,97.25
2022-11-24T20:10:16.283Z,97.31
2022-11-24T20:12:44.359Z,97.37
2022-11-24T20:15:12.412Z,97.43
2022-11-24T20:17:43.228Z,97.46
2022-11-24T20:20:12.387Z,97.43
2022-11-24T20:22:43.330Z,97.43
2022-11-24T20:25:11.762Z,97.50
2022-11-24T20:27:41.133Z,97.52
2022-11-24T20:30:11.538Z,97.53
2022-11-24T20:32:42.088Z,97.55
2022-11-24T20:35:16.601Z,97.54
2022-11-24T20:37:46.470Z,97.59
2022-11-24T20:40:16.242Z,97.56
2022-11-24T20:42:45.963Z,97.60
2022-11-24T20:45:14.015Z,97.63
2022-11-24T20:47:42.228Z,97.67
2022-11-24T20:50:10.859Z,97.66
2022-11-24T20:52:39.278Z,97.65
2022-11-24T20:55:08.545Z,97.65
2022-11-24T20:57:36.979Z,97.69
2022-11-24T21:00:07.980Z,97.64
2022-11-24T21:02:36.242Z,97.65
2022-11-24T21:05:04.820Z,97.71
2022-11-24T21:07:33.138Z,97.74
2022-11-24T21:10:02.368Z,97.78
2022-11-24T21:12:30.596Z,97.76
2022-11-24T21:14:59.028Z,97.79
2022-11-24T21:17:29.104Z,97.81
2022-11-24T21:20:00.956Z,97.85
2022-11-24T21:22:29.227Z,97.88
2022-11-24T21:24:58.837Z,97.91
2022-11-24T21:27:27.201Z,97.92
2022-11-24T21:29:55.425Z,97.94
2022-11-24T21:32:23.681Z,97.99
2022-11-24T21:34:53.787Z,98.00
2022-11-24T21:37:24.129Z,98.01
2022-11-24T21:39:52.376Z,98.07
2022-11-24T21:42:21.168Z,98.15
2022-11-24T21:44:49.423Z,98.13
2022-11-24T21:47:18.530Z,98.12
2022-11-24T21:49:46.701Z,98.17
2022-11-24T21:52:16.108Z,98.17
2022-11-24T21:54:44.535Z,98.21
2022-11-24T21:57:12.530Z,98.23
2022-11-24T21:59:40.500Z,98.26
2022-11-24T22:02:13.211Z,98.35
2022-11-24T22:04:41.647Z,98.38
2022-11-24T22:07:09.651Z,98.39
2022-11-24T22:09:39.191Z,98.42
2022-11-24T22:12:07.476Z,98.43
2022-11-24T22:14:40.206Z,98.41
2022-11-24T22:17:10.123Z,98.43
2022-11-24T22:19:38.256Z,98.42
2022-11-24T22:22:07.845Z,98.42
2022-11-24T22:24:36.156Z,98.40
2022-11-24T22:27:07.144Z,98.46
2022-11-24T22:29:35.462Z,98.46
2022-11-24T22:32:03.904Z,98.46
2022-11-24T22:34:33.195Z,98.41
2022-11-24T22:37:02.053Z,98.41
2022-11-24T22:39:29.994Z,98.39
2022-11-24T22:41:58.042Z,98.39
2022-11-24T22:44:27.329Z,98.46
2022-11-24T22:46:55.920Z,98.42
2022-11-24T22:49:24.336Z,98.42
2022-11-24T22:51:52.254Z,98.42
2022-11-24T22:54:24.121Z,98.44
2022-11-24T22:56:53.609Z,98.45
2022-11-24T22:59:23.840Z,98.49
2022-11-24T23:01:53.739Z,98.50
2022-11-24T23:04:22.147Z,98.50
2022-11-24T23:06:50.167Z,98.48
2022-11-24T23:09:18.430Z,98.47
2022-11-24T23:11:46.547Z,98.42
2022-11-24T23:14:16.196Z,98.45
2022-11-24T23:16:44.875Z,98.47
2022-11-24T23:19:15.513Z,98.52
2022-11-24T23:21:43.757Z,98.54
2022-11-24T23:24:12.612Z,98.55
2022-11-24T23:26:42.255Z,98.55
2022-11-24T23:29:11.969Z,98.60
2022-11-24T23:31:41.364Z,98.56
2022-11-24T23:34:10.868Z,98.60
2022-11-24T23:36:40.758Z,98.59
2022-11-24T23:39:13.281Z,98.60
2022-11-24T23:41:42.179Z,98.59
2022-11-24T23:44:10.111Z,98.59
2022-11-24T23:46:38.099Z,98.60
2022-11-24T23:49:06.395Z,98.62
2022-11-24T23:51:36.750Z,98.61
2022-11-24T23:54:08.567Z,98.60
2022-11-24T23:56:37.075Z,98.64
2022-11-24T23:59:06.517Z,98.64
